Time;durP1;ratioP1;P1;durP2;ratioP2;P2;SDS_P1;SDS_P2;PMS_P1;PMS_P2;Temp;Humidity;BMP_temperature;BMP_pressure;BME280_temperature;BME280_humidity;BME280_pressure;Samples;Min_cycle;Max_cycle;Signal;HPM_P1;HPM_P2
2023/04/04 00:00:20;;;;;;;5.47;2.90;;;;;;;-1.03;100.00;102080.56;703223;28;959;-62
2023/04/04 00:00:40;;;;;;;4.87;2.80;;;;;;;-1.04;100.00;102083.94;701600;28;4373;-62
2023/04/04 00:01:00;;;;;;;5.45;2.80;;;;;;;-1.05;100.00;102082.16;703190;28;832;-62
2023/04/04 00:01:21;;;;;;;6.10;3.00;;;;;;;-1.04;100.00;102075.34;700879;28;923;-62
2023/04/04 00:01:41;;;;;;;5.20;3.00;;;;;;;-1.05;100.00;102083.84;700683;28;1573;-62
2023/04/04 00:02:02;;;;;;;4.93;3.00;;;;;;;-1.06;100.00;102075.25;699634;28;971;-62
2023/04/04 00:02:23;;;;;;;4.43;3.00;;;;;;;-1.07;100.00;102086.28;699646;28;848;-62
2023/04/04 00:02:43;;;;;;;5.32;3.00;;;;;;;-1.07;100.00;102078.59;699299;28;1600;-62
2023/04/04 00:03:03;;;;;;;5.90;3.10;;;;;;;-1.09;100.00;102080.19;700822;28;880;-62
2023/04/04 00:03:24;;;;;;;7.45;3.20;;;;;;;-1.10;100.00;102078.41;703922;28;927;-62
2023/04/04 00:03:44;;;;;;;6.70;3.03;;;;;;;-1.07;100.00;102082.84;699795;28;4534;-62
2023/04/04 00:04:05;;;;;;;5.97;3.10;;;;;;;-1.09;100.00;102075.06;701736;28;1479;-62
2023/04/04 00:04:26;;;;;;;5.13;3.10;;;;;;;-1.08;100.00;102076.84;700645;28;978;-62
2023/04/04 00:04:47;;;;;;;5.25;3.00;;;;;;;-1.08;100.00;102079.41;700038;28;1494;-62
2023/04/04 00:05:08;;;;;;;4.97;2.83;;;;;;;-1.08;100.00;102078.50;699652;28;935;-62
2023/04/04 00:05:28;;;;;;;4.75;2.88;;;;;;;-1.07;100.00;102080.28;697056;28;1939;-62
2023/04/04 00:05:50;;;;;;;4.53;2.73;;;;;;;-1.07;100.00;102078.59;698115;28;1447;-62
2023/04/04 00:06:10;;;;;;;4.90;2.90;;;;;;;-1.07;100.00;102081.16;697758;28;844;-62
2023/04/04 00:06:31;;;;;;;6.90;3.20;;;;;;;-1.08;100.00;102078.50;699797;28;1478;-62
2023/04/04 00:06:51;;;;;;;7.03;3.15;;;;;;;-1.09;100.00;102072.50;698432;28;4390;-62
2023/04/04 00:07:12;;;;;;;5.50;3.20;;;;;;;-1.11;100.00;102079.22;696305;28;1925;-62
2023/04/04 00:07:32;;;;;;;5.57;3.33;;;;;;;-1.12;100.00;102080.00;697504;28;984;-62
2023/04/04 00:07:52;;;;;;;5.60;3.33;;;;;;;-1.12;100.00;102074.88;697301;28;935;-62
2023/04/04 00:08:13;;;;;;;6.18;3.17;;;;;;;-1.14;100.00;102078.97;699044;28;865;-62
2023/04/04 00:08:34;;;;;;;6.60;3.03;;;;;;;-1.14;100.00;102078.97;696050;28;1503;-62
2023/04/04 00:08:54;;;;;;;6.07;3.20;;;;;;;-1.16;100.00;102079.66;697143;28;963;-62
2023/04/04 00:09:14;;;;;;;5.73;3.10;;;;;;;-1.15;100.00;102076.31;699649;28;979;-62
2023/04/04 00:09:35;;;;;;;5.00;3.00;;;;;;;-1.20;100.00;102073.47;700491;28;1519;-62
2023/04/04 00:09:55;;;;;;;5.40;3.50;;;;;;;-1.21;100.00;102079.38;700714;28;4423;-62
2023/04/04 00:10:16;;;;;;;5.93;3.20;;;;;;;-1.26;100.00;102078.19;698019;28;829;-62
2023/04/04 00:10:36;;;;;;;5.80;3.10;;;;;;;-1.25;100.00;102078.28;700651;28;1414;-62
2023/04/04 00:10:58;;;;;;;4.97;3.10;;;;;;;-1.23;100.00;102083.53;699813;28;827;-62
2023/04/04 00:11:18;;;;;;;6.50;3.20;;;;;;;-1.25;100.00;102075.72;698919;28;1169;-62
2023/04/04 00:11:41;;;;;;;5.27;3.03;;;;;;;-1.23;100.00;102078.41;698460;28;1479;-62
2023/04/04 00:12:01;;;;;;;6.15;3.10;;;;;;;-1.23;100.00;102081.84;699751;28;784;-62
2023/04/04 00:12:23;;;;;;;7.30;3.30;;;;;;;-1.27;100.00;102081.56;699401;28;912;-62
2023/04/04 00:12:43;;;;;;;7.05;3.20;;;;;;;-1.29;100.00;102077.97;699695;28;4328;-61
2023/04/04 00:13:04;;;;;;;5.97;3.10;;;;;;;-1.32;100.00;102082.91;699562;28;951;-62
2023/04/04 00:13:25;;;;;;;5.03;2.87;;;;;;;-1.36;100.00;102081.81;698590;28;939;-62
2023/04/04 00:13:46;;;;;;;6.07;2.97;;;;;;;-1.39;100.00;102079.94;697893;28;1447;-61
2023/04/04 00:14:06;;;;;;;5.57;3.00;;;;;;;-1.39;100.00;102079.06;700715;28;1022;-61
2023/04/04 00:14:27;;;;;;;6.20;3.10;;;;;;;-1.42;100.00;102084.88;698343;28;1002;-61
2023/04/04 00:14:47;;;;;;;7.65;3.15;;;;;;;-1.43;100.00;102080.50;698046;28;1092;-61
2023/04/04 00:15:08;;;;;;;7.13;3.17;;;;;;;-1.43;100.00;102080.50;696944;28;1100;-61
2023/04/04 00:15:29;;;;;;;5.80;3.13;;;;;;;-1.42;100.00;102078.84;699681;28;904;-61
2023/04/04 00:15:49;;;;;;;6.95;3.33;;;;;;;-1.40;100.00;102082.41;699347;28;4341;-62
2023/04/04 00:16:10;;;;;;;7.60;3.20;;;;;;;-1.39;100.00;102079.94;699080;28;807;-61
2023/04/04 00:16:31;;;;;;;7.00;3.20;;;;;;;-1.35;100.00;102078.47;698795;28;3219;-61
2023/04/04 00:16:51;;;;;;;5.88;3.20;;;;;;;-1.33;100.00;102076.00;700268;28;744;-61
2023/04/04 00:17:11;;;;;;;5.00;3.23;;;;;;;-1.35;100.00;102083.59;699527;28;856;-61
2023/04/04 00:17:34;;;;;;;5.13;3.22;;;;;;;-1.34;100.00;102079.34;703960;28;1608;-61
2023/04/04 00:17:55;;;;;;;5.78;3.17;;;;;;;-1.32;100.00;102080.34;702461;28;995;-61
2023/04/04 00:18:16;;;;;;;5.65;3.20;;;;;;;-1.32;100.00;102075.22;699856;28;959;-61
2023/04/04 00:18:36;;;;;;;5.40;3.20;;;;;;;-1.30;100.00;102077.09;698753;28;4295;-62
2023/04/04 00:18:57;;;;;;;5.97;3.13;;;;;;;-1.28;100.00;102082.34;699550;28;1070;-61
2023/04/04 00:19:17;;;;;;;5.07;2.93;;;;;;;-1.31;100.00;102077.88;698333;28;976;-61
2023/04/04 00:19:38;;;;;;;4.85;2.95;;;;;;;-1.32;100.00;102083.78;698511;28;1486;-61
2023/04/04 00:19:58;;;;;;;5.90;3.07;;;;;;;-1.34;100.00;102066.50;698999;28;785;-62
2023/04/04 00:20:18;;;;;;;5.53;3.10;;;;;;;-1.35;100.00;102081.03;700539;28;832;-61
2023/04/04 00:20:39;;;;;;;5.00;3.20;;;;;;;-1.37;100.00;102080.94;700613;28;1486;-61
2023/04/04 00:20:59;;;;;;;5.50;3.20;;;;;;;-1.37;100.00;102086.06;701357;28;966;-62
2023/04/04 00:21:20;;;;;;;6.10;3.30;;;;;;;-1.37;100.00;102080.94;702967;28;920;-61
2023/04/04 00:21:40;;;;;;;6.05;3.10;;;;;;;-1.37;100.00;102075.81;702835;28;4616;-62
2023/04/04 00:22:00;;;;;;;7.67;3.20;;;;;;;-1.37;100.00;102078.38;703096;28;848;-62
2023/04/04 00:22:21;;;;;;;7.18;3.20;;;;;;;-1.35;100.00;102081.03;702773;28;990;-61
2023/04/04 00:22:42;;;;;;;6.57;3.60;;;;;;;-1.34;100.00;102075.13;701403;28;1512;-61
2023/04/04 00:23:02;;;;;;;5.70;3.20;;;;;;;-1.34;100.00;102079.34;701345;28;1246;-61
2023/04/04 00:23:25;;;;;;;6.30;3.33;;;;;;;-1.37;100.00;102080.94;698855;28;974;-61
2023/04/04 00:23:46;;;;;;;8.15;3.53;;;;;;;-1.34;100.00;102071.66;698536;28;1444;-62
2023/04/04 00:24:07;;;;;;;6.03;3.10;;;;;;;-1.33;100.00;102073.44;698746;28;1046;-62
2023/04/04 00:24:27;;;;;;;5.50;2.90;;;;;;;-1.33;100.00;102083.69;698625;28;935;-62
2023/04/04 00:24:47;;;;;;;6.13;3.05;;;;;;;-1.33;100.00;102083.69;698118;28;4420;-61
2023/04/04 00:25:09;;;;;;;5.67;3.17;;;;;;;-1.35;100.00;102072.47;702125;28;932;-61
2023/04/04 00:25:30;;;;;;;6.82;3.60;;;;;;;-1.41;100.00;102084.09;702073;28;934;-61
2023/04/04 00:25:51;;;;;;;5.78;3.10;;;;;;;-1.47;100.00;102086.22;702433;28;1461;-61
2023/04/04 00:26:11;;;;;;;4.47;3.15;;;;;;;-1.50;100.00;102080.03;703067;28;1015;-62
2023/04/04 00:26:33;;;;;;;5.07;3.20;;;;;;;-1.53;100.00;102083.25;701800;28;1626;-61
2023/04/04 00:26:54;;;;;;;6.37;3.03;;;;;;;-1.54;100.00;102081.47;699521;28;825;-61
2023/04/04 00:27:15;;;;;;;5.70;3.23;;;;;;;-1.53;100.00;102087.50;700365;28;1910;-61
2023/04/04 00:27:37;;;;;;;5.25;3.20;;;;;;;-1.52;100.00;102084.13;700540;28;1651;-62
2023/04/04 00:27:59;;;;;;;4.43;3.05;;;;;;;-1.54;100.00;102086.59;700147;28;4610;-61
2023/04/04 00:28:20;;;;;;;6.45;3.20;;;;;;;-1.52;100.00;102082.47;700089;28;774;-61
2023/04/04 00:28:41;;;;;;;7.03;3.75;;;;;;;-1.51;100.00;102086.81;699914;28;1767;-61
2023/04/04 00:29:01;;;;;;;6.17;3.50;;;;;;;-1.52;100.00;102082.47;697396;28;1387;-62
2023/04/04 00:29:21;;;;;;;6.10;3.20;;;;;;;-1.54;100.00;102086.59;697669;28;1313;-61
2023/04/04 00:29:42;;;;;;;7.23;3.50;;;;;;;-1.52;100.00;102090.19;697650;28;1515;-61
2023/04/04 00:30:02;;;;;;;7.88;3.20;;;;;;;-1.53;100.00;102080.69;696860;28;813;-61
2023/04/04 00:30:25;;;;;;;6.83;3.20;;;;;;;-1.52;100.00;102085.06;695280;28;1114;-61
2023/04/04 00:30:46;;;;;;;6.95;3.13;;;;;;;-1.53;100.00;102082.38;694058;28;4418;-61
2023/04/04 00:31:06;;;;;;;8.88;3.63;;;;;;;-1.52;100.00;102082.47;696834;28;1190;-61
2023/04/04 00:31:26;;;;;;;8.73;3.80;;;;;;;-1.48;100.00;102087.03;696912;28;916;-62
2023/04/04 00:31:47;;;;;;;6.55;3.33;;;;;;;-1.49;100.00;102085.25;700477;28;1615;-61
2023/04/04 00:32:07;;;;;;;5.30;3.10;;;;;;;-1.47;100.00;102088.78;694389;28;1141;-62
2023/04/04 00:32:28;;;;;;;5.30;3.10;;;;;;;-1.44;100.00;102086.44;693225;28;1147;-62
2023/04/04 00:32:48;;;;;;;5.80;3.30;;;;;;;-1.44;100.00;102083.88;692597;28;1117;-60
2023/04/04 00:33:09;;;;;;;5.40;3.03;;;;;;;-1.44;100.00;102091.59;696288;28;840;-62
2023/04/04 00:33:29;;;;;;;6.00;3.40;;;;;;;-1.45;100.00;102091.47;696211;28;893;-61
2023/04/04 00:33:50;;;;;;;6.77;3.10;;;;;;;-1.44;100.00;102078.75;692423;28;4386;-61
2023/04/04 00:34:10;;;;;;;6.50;3.30;;;;;;;-1.42;100.00;102083.97;694694;28;872;-62
2023/04/04 00:34:30;;;;;;;6.23;3.10;;;;;;;-1.44;100.00;102088.09;695940;28;1212;-61
2023/04/04 00:34:52;;;;;;;5.03;3.00;;;;;;;-1.44;100.00;102080.41;700821;28;1441;-62
2023/04/04 00:35:12;;;;;;;4.32;3.00;;;;;;;-1.44;100.00;102081.31;700268;28;1376;-61
2023/04/04 00:35:33;;;;;;;5.03;3.17;;;;;;;-1.45;100.00;102082.09;697159;28;1463;-62
2023/04/04 00:35:53;;;;;;;4.97;3.10;;;;;;;-1.45;100.00;102079.53;698596;28;1353;-61
2023/04/04 00:36:13;;;;;;;5.30;3.13;;;;;;;-1.44;100.00;102086.44;698571;28;1039;-61
2023/04/04 00:36:34;;;;;;;5.55;3.10;;;;;;;-1.42;100.00;102083.97;698088;28;1647;-61
2023/04/04 00:36:54;;;;;;;6.00;2.90;;;;;;;-1.41;100.00;102085.78;695540;28;4329;-62
2023/04/04 00:37:15;;;;;;;5.95;3.10;;;;;;;-1.41;100.00;102086.66;694710;28;856;-61
2023/04/04 00:37:36;;;;;;;5.63;3.27;;;;;;;-1.41;100.00;102084.09;698712;28;1060;-61
2023/04/04 00:37:56;;;;;;;5.88;3.30;;;;;;;-1.40;100.00;102080.75;700898;28;1418;-62
2023/04/04 00:38:17;;;;;;;6.20;3.20;;;;;;;-1.40;100.00;102085.88;700314;28;861;-61
2023/04/04 00:38:37;;;;;;;5.97;3.10;;;;;;;-1.40;100.00;102083.31;697878;28;1513;-61
2023/04/04 00:38:57;;;;;;;5.47;3.10;;;;;;;-1.40;100.00;102082.41;699789;28;5292;-61
2023/04/04 00:39:18;;;;;;;6.07;3.05;;;;;;;-1.39;100.00;102082.50;697346;28;1303;-61
2023/04/04 00:39:39;;;;;;;7.13;3.35;;;;;;;-1.39;100.00;102082.50;691491;28;4474;-61
2023/04/04 00:39:59;;;;;;;7.30;3.30;;;;;;;-1.39;100.00;102077.34;692873;28;1289;-62
2023/04/04 00:40:20;;;;;;;5.47;3.17;;;;;;;-1.40;100.00;102085.88;688868;28;935;-61
2023/04/04 00:40:46;;;;;;;5.35;3.20;;;;;;;-1.41;100.00;102078.06;689266;28;1524;-61
2023/04/04 00:41:07;;;;;;;8.73;3.83;;;;;;;-1.40;100.00;102079.81;687517;28;950;-62
2023/04/04 00:41:27;;;;;;;8.57;3.80;;;;;;;-1.41;100.00;102081.50;689933;28;885;-61
2023/04/04 00:41:48;;;;;;;5.03;3.25;;;;;;;-1.42;100.00;102081.41;692763;28;1613;-61
2023/04/04 00:42:09;;;;;;;5.18;3.17;;;;;;;-1.42;100.00;102082.28;693855;28;1251;-61
2023/04/04 00:42:32;;;;;;;4.90;3.07;;;;;;;-1.45;100.00;102079.53;696793;28;915;-61
2023/04/04 00:42:53;;;;;;;5.78;3.10;;;;;;;-1.42;100.00;102083.97;698271;28;4856;-61
2023/04/04 00:43:14;;;;;;;7.05;3.50;;;;;;;-1.40;100.00;102080.75;695185;28;1619;-61
2023/04/04 00:43:34;;;;;;;5.88;3.30;;;;;;;-1.43;100.00;102080.50;693902;28;1522;-61
2023/04/04 00:43:55;;;;;;;6.13;3.40;;;;;;;-1.46;100.00;102084.56;694009;28;1540;-61
2023/04/04 00:44:15;;;;;;;5.72;3.20;;;;;;;-1.48;100.00;102081.91;694397;28;1211;-60
2023/04/04 00:44:36;;;;;;;5.78;3.13;;;;;;;-1.48;100.00;102079.34;693397;28;1505;-61
2023/04/04 00:44:56;;;;;;;5.70;3.37;;;;;;;-1.51;100.00;102073.97;693944;28;825;-62
2023/04/04 00:45:16;;;;;;;6.57;3.70;;;;;;;-1.51;100.00;102080.78;696191;28;1247;-61
2023/04/04 00:45:37;;;;;;;6.43;3.28;;;;;;;-1.52;100.00;102079.00;697493;28;4547;-62
2023/04/04 00:45:57;;;;;;;7.20;3.50;;;;;;;-1.52;100.00;102082.47;698989;28;967;-61
2023/04/04 00:46:18;;;;;;;7.43;3.67;;;;;;;-1.52;100.00;102071.31;701509;28;1029;-62
2023/04/04 00:46:39;;;;;;;5.78;3.17;;;;;;;-1.51;100.00;102086.81;701102;28;2323;-62
2023/04/04 00:46:59;;;;;;;5.53;3.15;;;;;;;-1.52;100.00;102085.06;701521;28;793;-61
2023/04/04 00:47:23;;;;;;;5.50;3.20;;;;;;;-1.53;100.00;102073.00;701686;28;1929;-62
2023/04/04 00:47:44;;;;;;;5.63;3.47;;;;;;;-1.48;100.00;102086.13;695554;28;1765;-61
2023/04/04 00:48:05;;;;;;;6.32;3.22;;;;;;;-1.41;100.00;102081.50;692409;28;1159;-61
2023/04/04 00:48:26;;;;;;;6.38;3.40;;;;;;;-1.40;100.00;102085.88;690968;28;996;-62
2023/04/04 00:48:48;;;;;;;5.53;3.25;;;;;;;-1.40;100.00;102085.88;694257;28;4569;-61
2023/04/04 00:49:08;;;;;;;5.93;3.20;;;;;;;-1.40;100.00;102080.75;694689;28;871;-61
2023/04/04 00:49:29;;;;;;;5.35;3.10;;;;;;;-1.40;100.00;102091.00;688789;28;1304;-61
2023/04/04 00:49:50;;;;;;;5.30;2.93;;;;;;;-1.42;100.00;102082.28;693365;28;1569;-61
2023/04/04 00:50:10;;;;;;;4.93;2.90;;;;;;;-1.41;100.00;102078.94;696626;28;948;-62
2023/04/04 00:50:31;;;;;;;6.10;3.38;;;;;;;-1.43;100.00;102080.50;696028;28;1382;-61
2023/04/04 00:50:51;;;;;;;6.43;3.30;;;;;;;-1.44;100.00;102080.41;698143;28;1506;-62
2023/04/04 00:51:12;;;;;;;5.53;3.08;;;;;;;-1.44;100.00;102083.88;696054;28;838;-61
2023/04/04 00:51:32;;;;;;;5.07;3.22;;;;;;;-1.45;100.00;102082.09;698383;28;1208;-61
2023/04/04 00:51:53;;;;;;;5.27;2.90;;;;;;;-1.47;100.00;102081.09;692869;28;4361;-61
2023/04/04 00:52:13;;;;;;;6.50;3.08;;;;;;;-1.53;100.00;102083.25;693405;28;892;-62
2023/04/04 00:52:34;;;;;;;5.43;3.23;;;;;;;-1.54;100.00;102086.59;694971;28;1546;-61
2023/04/04 00:52:55;;;;;;;5.10;3.00;;;;;;;-1.54;100.00;102076.34;696180;28;884;-61
2023/04/04 00:53:16;;;;;;;5.15;3.20;;;;;;;-1.55;100.00;102085.72;695955;28;1324;-61
2023/04/04 00:53:37;;;;;;;5.30;3.00;;;;;;;-1.52;100.00;102084.13;697075;28;1614;-62
2023/04/04 00:53:58;;;;;;;5.90;3.05;;;;;;;-1.49;100.00;102084.38;696706;28;892;-61
2023/04/04 00:54:18;;;;;;;5.15;3.10;;;;;;;-1.51;100.00;102089.38;696526;28;1249;-62
2023/04/04 00:54:39;;;;;;;6.00;3.37;;;;;;;-1.50;100.00;102082.59;697492;28;4466;-61
2023/04/04 00:54:59;;;;;;;6.25;3.55;;;;;;;-1.49;100.00;102084.38;694810;28;1334;-61
2023/04/04 00:55:20;;;;;;;5.63;3.50;;;;;;;-1.49;100.00;102085.25;695940;28;1351;-62
2023/04/04 00:55:42;;;;;;;5.78;3.13;;;;;;;-1.48;100.00;102089.59;695773;28;1473;-62
2023/04/04 00:56:03;;;;;;;5.30;3.17;;;;;;;-1.49;100.00;102084.38;693407;28;1204;-61
2023/04/04 00:56:24;;;;;;;4.57;3.10;;;;;;;-1.49;100.00;102081.81;695235;28;1193;-61
2023/04/04 00:56:45;;;;;;;5.45;3.10;;;;;;;-1.50;100.00;102083.47;692071;28;1010;-61
2023/04/04 00:57:07;;;;;;;5.28;2.90;;;;;;;-1.49;100.00;102084.38;694147;28;802;-62
2023/04/04 00:57:28;;;;;;;5.88;3.20;;;;;;;-1.51;100.00;102086.81;692954;28;881;-62
2023/04/04 00:57:49;;;;;;;6.15;3.10;;;;;;;-1.51;100.00;102084.22;692544;28;4733;-62
2023/04/04 00:58:10;;;;;;;5.72;3.00;;;;;;;-1.50;100.00;102082.59;695757;28;1157;-62
2023/04/04 00:58:30;;;;;;;5.13;3.08;;;;;;;-1.49;100.00;102090.38;692765;28;1238;-61
2023/04/04 00:58:51;;;;;;;4.77;2.90;;;;;;;-1.48;100.00;102087.03;691401;28;1615;-62
2023/04/04 00:59:11;;;;;;;5.65;3.30;;;;;;;-1.50;100.00;102082.59;689063;28;1611;-62
2023/04/04 00:59:32;;;;;;;7.18;3.20;;;;;;;-1.49;100.00;102092.06;691661;28;901;-62
2023/04/04 00:59:53;;;;;;;6.10;3.13;;;;;;;-1.49;100.00;102092.94;691627;28;1157;-61
2023/04/04 01:00:14;;;;;;;5.87;3.37;;;;;;;-1.48;100.00;102088.69;689236;28;1152;-61
2023/04/04 01:00:35;;;;;;;6.22;3.53;;;;;;;-1.48;100.00;102081.00;690566;28;905;-61
2023/04/04 01:00:56;;;;;;;5.90;3.20;;;;;;;-1.50;100.00;102088.59;693602;28;4459;-62
2023/04/04 01:01:16;;;;;;;5.03;3.13;;;;;;;-1.51;100.00;102085.94;695063;28;809;-61
2023/04/04 01:01:37;;;;;;;6.07;3.10;;;;;;;-1.51;100.00;102084.22;691848;28;1137;-62
2023/04/04 01:01:59;;;;;;;6.15;3.25;;;;;;;-1.50;100.00;102083.47;690964;28;1248;-62
2023/04/04 01:02:20;;;;;;;6.90;3.47;;;;;;;-1.51;100.00;102079.09;692730;28;1268;-61
2023/04/04 01:02:40;;;;;;;7.78;3.50;;;;;;;-1.52;100.00;102081.56;692504;28;1505;-62
2023/04/04 01:03:01;;;;;;;7.17;3.20;;;;;;;-1.52;100.00;102082.47;692773;28;932;-62
2023/04/04 01:03:22;;;;;;;5.18;3.05;;;;;;;-1.54;100.00;102078.91;693682;28;1231;-61
2023/04/04 01:03:44;;;;;;;5.35;3.10;;;;;;;-1.53;100.00;102082.38;693787;28;4556;-62
2023/04/04 01:04:04;;;;;;;6.47;3.20;;;;;;;-1.53;100.00;102093.53;690614;28;787;-61
2023/04/04 01:04:28;;;;;;;6.05;3.20;;;;;;;-1.55;100.00;102085.72;689849;28;1149;-62
2023/04/04 01:04:49;;;;;;;5.28;2.90;;;;;;;-1.53;100.00;102083.25;691657;28;1066;-62
2023/04/04 01:05:10;;;;;;;4.95;3.10;;;;;;;-1.53;100.00;102077.25;693987;28;921;-62
2023/04/04 01:05:32;;;;;;;5.28;3.08;;;;;;;-1.53;100.00;102078.13;694909;28;1258;-61
2023/04/04 01:05:53;;;;;;;4.57;2.93;;;;;;;-1.52;100.00;102084.13;695299;28;1589;-61
2023/04/04 01:06:14;;;;;;;6.05;3.40;;;;;;;-1.53;100.00;102078.13;691664;28;1354;-62
2023/04/04 01:06:35;;;;;;;6.18;3.40;;;;;;;-1.50;100.00;102083.47;689974;28;1470;-62
2023/04/04 01:06:55;;;;;;;5.57;3.25;;;;;;;-1.51;100.00;102083.34;692599;28;4351;-61
2023/04/04 01:07:17;;;;;;;5.60;3.37;;;;;;;-1.50;100.00;102080.91;689454;28;1990;-61
2023/04/04 01:07:38;;;;;;;6.38;3.33;;;;;;;-1.51;100.00;102081.66;689449;28;1499;-62
2023/04/04 01:08:00;;;;;;;5.93;2.97;;;;;;;-1.53;100.00;102083.25;690575;28;1275;-61
2023/04/04 01:08:25;;;;;;;6.35;3.17;;;;;;;-1.54;100.00;102084.03;691194;28;1455;-61
2023/04/04 01:08:47;;;;;;;6.15;3.20;;;;;;;-1.53;100.00;102085.81;689829;28;1540;-61
2023/04/04 01:09:08;;;;;;;5.47;3.33;;;;;;;-1.52;100.00;102085.06;691922;28;1378;-61
2023/04/04 01:09:29;;;;;;;6.00;3.10;;;;;;;-1.52;100.00;102076.44;693319;28;1472;-62
2023/04/04 01:09:51;;;;;;;5.90;3.15;;;;;;;-1.54;100.00;102078.91;688146;28;5333;-62
2023/04/04 01:10:11;;;;;;;8.10;3.75;;;;;;;-1.54;100.00;102081.47;687012;28;1567;-61
2023/04/04 01:10:33;;;;;;;6.03;3.20;;;;;;;-1.55;100.00;102085.72;685798;28;1291;-61
2023/04/04 01:10:53;;;;;;;5.25;3.13;;;;;;;-1.59;100.00;102078.59;688339;28;955;-61
2023/04/04 01:11:15;;;;;;;6.60;3.50;;;;;;;-1.58;100.00;102082.06;687147;28;1410;-61
2023/04/04 01:11:36;;;;;;;6.22;3.20;;;;;;;-1.59;100.00;102077.72;691804;28;1391;-62
2023/04/04 01:11:57;;;;;;;6.53;3.60;;;;;;;-1.56;100.00;102077.94;691817;28;1409;-62
2023/04/04 01:12:19;;;;;;;5.63;3.42;;;;;;;-1.59;100.00;102078.59;689467;28;1290;-62
2023/04/04 01:12:41;;;;;;;5.47;3.35;;;;;;;-1.58;100.00;102082.06;688593;28;4432;-61
2023/04/04 01:13:02;;;;;;;5.45;3.28;;;;;;;-1.56;100.00;102083.06;688759;28;904;-62
2023/04/04 01:13:23;;;;;;;5.15;3.00;;;;;;;-1.59;100.00;102078.59;689540;28;1317;-61
2023/04/04 01:13:46;;;;;;;6.15;3.33;;;;;;;-1.59;100.00;102077.72;690034;28;1825;-61
2023/04/04 01:14:09;;;;;;;5.40;3.17;;;;;;;-1.64;100.00;102084.22;690238;28;1259;-62
2023/04/04 01:14:30;;;;;;;6.03;3.10;;;;;;;-1.67;100.00;102076.31;692061;28;1279;-62
2023/04/04 01:14:50;;;;;;;6.45;3.42;;;;;;;-1.66;100.00;102078.06;689783;28;1582;-61
2023/04/04 01:15:10;;;;;;;4.93;3.45;;;;;;;-1.63;100.00;102075.75;688714;28;1319;-62
2023/04/04 01:15:31;;;;;;;6.20;3.30;;;;;;;-1.61;100.00;102075.03;688016;28;1161;-62
2023/04/04 01:15:51;;;;;;;5.88;3.05;;;;;;;-1.58;100.00;102079.50;684124;28;4557;-61
2023/04/04 01:16:12;;;;;;;6.70;3.23;;;;;;;-1.60;100.00;102081.06;687029;28;1201;-62
2023/04/04 01:16:34;;;;;;;6.13;3.33;;;;;;;-1.61;100.00;102079.28;690658;28;1311;-61
2023/04/04 01:16:55;;;;;;;5.72;3.05;;;;;;;-1.62;100.00;102077.50;693102;28;1020;-62
2023/04/04 01:17:22;;;;;;;6.18;3.20;;;;;;;-1.63;100.00;102080.88;692001;28;1390;-62
2023/04/04 01:17:43;;;;;;;5.07;3.08;;;;;;;-1.66;100.00;102078.06;691757;28;1555;-62
2023/04/04 01:18:05;;;;;;;5.70;3.00;;;;;;;-1.65;100.00;102083.31;692873;28;1650;-61
2023/04/04 01:18:27;;;;;;;5.45;3.20;;;;;;;-1.66;100.00;102076.44;691457;28;1395;-61
2023/04/04 01:18:49;;;;;;;6.30;3.40;;;;;;;-1.68;100.00;102069.41;694019;28;4261;-61
2023/04/04 01:19:18;;;;;;;6.65;3.25;;;;;;;-1.67;100.00;102078.88;696875;28;1094;-62
2023/04/04 01:20:12;;;;;;;5.82;3.13;;;;;;;-1.67;100.00;102078.88;695612;28;2219;-61
2023/04/04 01:20:45;;;;;;;4.97;3.00;;;;;;;-1.71;100.00;102070.97;699910;28;2344;-62
2023/04/04 01:21:11;;;;;;;4.95;3.00;;;;;;;-1.71;100.00;102073.53;700600;28;1243;-61
2023/04/04 01:21:33;;;;;;;5.93;3.03;;;;;;;-1.69;100.00;102083.00;698961;28;1552;-61
2023/04/04 01:21:56;;;;;;;5.30;3.28;;;;;;;-1.68;100.00;102077.09;695211;28;4655;-61
2023/04/04 01:22:17;;;;;;;5.95;3.25;;;;;;;-1.69;100.00;102073.63;692818;28;1331;-61
2023/04/04 01:22:39;;;;;;;6.00;3.40;;;;;;;-1.65;100.00;102082.44;692371;28;1701;-61
2023/04/04 01:23:01;;;;;;;5.38;3.20;;;;;;;-1.65;100.00;102074.75;693228;28;991;-62
2023/04/04 01:23:27;;;;;;;5.20;3.47;;;;;;;-1.69;100.00;102080.44;694201;28;2071;-61
2023/04/04 01:24:02;;;;;;;5.75;3.67;;;;;;;-1.68;100.00;102080.53;693740;28;1580;-61
2023/04/04 01:24:43;;;;;;;5.90;3.17;;;;;;;-1.67;100.00;102084.03;696740;28;4380;-61
2023/04/04 01:25:05;;;;;;;6.05;3.40;;;;;;;-1.71;100.00;102078.66;697616;28;877;-62
2023/04/04 01:25:33;;;;;;;6.35;3.47;;;;;;;-1.72;100.00;102079.47;696624;28;919;-61
2023/04/04 01:26:02;;;;;;;4.82;3.20;;;;;;;-1.71;100.00;102083.78;697799;28;1307;-61
2023/04/04 01:26:25;;;;;;;5.63;3.20;;;;;;;-1.71;100.00;102078.66;696563;28;1545;-61
2023/04/04 01:26:49;;;;;;;5.95;3.30;;;;;;;-1.72;100.00;102076.91;695185;28;1573;-61
2023/04/04 01:27:12;;;;;;;5.60;3.25;;;;;;;-1.71;100.00;102078.66;695721;28;1925;-62
2023/04/04 01:27:38;;;;;;;5.43;3.30;;;;;;;-1.72;100.00;102078.56;696575;28;4293;-61
2023/04/04 01:28:04;;;;;;;5.10;3.30;;;;;;;-1.74;100.00;102073.31;694448;28;1315;-62
2023/04/04 01:28:27;;;;;;;5.70;3.27;;;;;;;-1.73;100.00;102074.19;692161;28;1416;-61
2023/04/04 01:28:47;;;;;;;6.45;3.50;;;;;;;-1.72;100.00;102076.00;692355;28;1480;-62
2023/04/04 01:29:08;;;;;;;5.90;3.30;;;;;;;-1.73;100.00;102081.91;692926;28;1335;-61
2023/04/04 01:29:28;;;;;;;5.57;3.38;;;;;;;-1.73;100.00;102075.13;692859;28;1246;-61
2023/04/04 01:29:50;;;;;;;5.30;3.13;;;;;;;-1.74;100.00;102072.44;693106;28;1575;-61
2023/04/04 01:30:12;;;;;;;5.55;3.10;;;;;;;-1.72;100.00;102076.00;695443;28;1030;-61
2023/04/04 01:30:35;;;;;;;6.20;3.33;;;;;;;-1.75;100.00;102074.09;698189;28;836;-62
2023/04/04 01:31:00;;;;;;;6.05;3.20;;;;;;;-1.77;100.00;102078.25;697932;28;4490;-61
2023/04/04 01:31:38;;;;;;;6.00;3.42;;;;;;;-1.76;100.00;102079.13;698051;28;1182;-62
2023/04/04 01:32:26;;;;;;;5.32;3.30;;;;;;;-1.77;100.00;102078.25;698358;28;1049;-62
2023/04/04 01:32:54;;;;;;;6.07;3.45;;;;;;;-1.76;100.00;102077.47;694902;28;1650;-61
2023/04/04 01:33:21;;;;;;;6.18;3.30;;;;;;;-1.78;100.00;102073.91;699319;28;884;-62
2023/04/04 01:33:50;;;;;;;5.70;2.97;;;;;;;-1.75;100.00;102079.22;694169;28;4813;-61
2023/04/04 01:34:19;;;;;;;6.57;3.40;;;;;;;-1.75;100.00;102074.09;697148;28;946;-61
2023/04/04 01:34:49;;;;;;;6.28;3.30;;;;;;;-1.75;100.00;102075.78;696767;28;1443;-61
2023/04/04 01:35:24;;;;;;;5.82;3.38;;;;;;;-1.75;100.00;102074.09;697467;28;1162;-62
2023/04/04 01:36:15;;;;;;;6.82;3.67;;;;;;;-1.75;100.00;102070.66;699842;28;1647;-61
2023/04/04 01:36:52;;;;;;;5.32;3.42;;;;;;;-1.77;100.00;102075.69;698721;28;1666;-61
2023/04/04 01:37:30;;;;;;;6.13;3.30;;;;;;;-1.76;100.00;102069.78;699931;28;4859;-61
2023/04/04 01:38:34;;;;;;;6.13;3.28;;;;;;;-1.77;100.00;102073.13;696956;28;1501;-61
2023/04/04 01:39:09;;;;;;;5.82;3.30;;;;;;;-1.77;100.00;102070.56;692533;28;5111;-61
2023/04/04 01:39:31;;;;;;;5.20;3.03;;;;;;;-1.75;100.00;102068.97;698094;28;1233;-61
2023/04/04 01:40:07;;;;;;;5.60;3.22;;;;;;;-1.76;100.00;102068.88;697438;28;4593;-61
2023/04/04 01:40:38;;;;;;;5.25;2.90;;;;;;;-1.80;100.00;102072.94;697359;28;1457;-61
2023/04/04 01:41:03;;;;;;;5.95;3.10;;;;;;;-1.83;100.00;102070.13;695604;28;1310;-61
2023/04/04 01:41:29;;;;;;;5.35;3.25;;;;;;;-1.81;100.00;102071.13;695395;28;992;-61
2023/04/04 01:41:55;;;;;;;5.57;3.20;;;;;;;-1.81;100.00;102071.13;695179;28;1525;-62
2023/04/04 01:42:15;;;;;;;4.90;3.20;;;;;;;-1.80;100.00;102065.25;695569;28;904;-61
2023/04/04 01:42:43;;;;;;;6.00;3.00;;;;;;;-1.82;100.00;102069.34;691381;28;4493;-61
2023/04/04 01:43:03;;;;;;;5.55;2.90;;;;;;;-1.82;100.00;102068.47;698773;28;1173;-61
2023/04/04 01:43:26;;;;;;;5.25;2.92;;;;;;;-1.83;100.00;102069.25;697623;28;1255;-61
2023/04/04 01:43:48;;;;;;;6.00;3.10;;;;;;;-1.86;100.00;102067.38;695524;28;1582;-61
2023/04/04 01:44:09;;;;;;;6.90;3.40;;;;;;;-1.85;100.00;102069.16;694459;28;1409;-61
2023/04/04 01:44:29;;;;;;;5.20;3.38;;;;;;;-1.85;100.00;102064.03;695079;28;1283;-61
2023/04/04 01:44:56;;;;;;;6.60;3.90;;;;;;;-1.78;100.00;102066.22;692059;28;1514;-61
2023/04/04 01:45:23;;;;;;;5.80;3.38;;;;;;;-1.79;100.00;102063.56;692195;28;837;-61
2023/04/04 01:45:45;;;;;;;4.75;3.30;;;;;;;-1.82;100.00;102063.34;694338;28;4346;-62
2023/04/04 01:46:06;;;;;;;5.15;3.30;;;;;;;-1.84;100.00;102065.81;694266;28;1220;-61